Time;durP1;ratioP1;P1;durP2;ratioP2;P2;SDS_P1;SDS_P2;PMS_P1;PMS_P2;Temp;Humidity;BMP_temperature;BMP_pressure;BME280_temperature;BME280_humidity;BME280_pressure;Samples;Min_cycle;Max_cycle;Signal;HPM_P1;HPM_P2
2023/04/06 00:00:38;;;;;;;6.87;5.10;;;2.70;41.60;;;;;;5038422;28;20208;-63
2023/04/06 00:03:05;;;;;;;6.33;5.20;;;2.80;45.00;;;;;;5042637;28;20701;-62
2023/04/06 00:05:32;;;;;;;11.57;5.67;;;2.80;37.00;;;;;;5033604;28;20536;-62
2023/04/06 00:08:00;;;;;;;7.30;5.13;;;2.60;38.40;;;;;;5050119;28;20563;-62
2023/04/06 00:10:27;;;;;;;7.90;5.13;;;2.60;39.70;;;;;;5063549;28;20200;-62
2023/04/06 00:12:54;;;;;;;9.83;5.70;;;2.70;45.00;;;;;;5048897;28;20212;-62
2023/04/06 00:15:21;;;;;;;8.63;5.60;;;2.70;46.10;;;;;;5060451;28;20223;-62
2023/04/06 00:17:48;;;;;;;8.00;5.60;;;2.70;45.10;;;;;;5027188;28;20211;-62
2023/04/06 00:20:15;;;;;;;8.53;5.33;;;2.60;43.10;;;;;;5060234;28;20200;-62
2023/04/06 00:22:42;;;;;;;9.67;6.63;;;2.70;49.00;;;;;;5013483;28;20212;-62
2023/04/06 00:25:11;;;;;;;9.17;6.43;;;2.70;47.10;;;;;;5051645;28;20200;-62
2023/04/06 00:27:38;;;;;;;7.50;5.70;;;2.80;49.70;;;;;;5040863;28;20667;-62
2023/04/06 00:30:05;;;;;;;8.67;5.83;;;2.70;47.00;;;;;;5051179;28;20222;-62
2023/04/06 00:32:32;;;;;;;9.33;6.37;;;2.70;50.40;;;;;;5045615;28;20620;-62
2023/04/06 00:34:59;;;;;;;10.13;6.37;;;2.60;49.30;;;;;;5042721;28;20271;-62
2023/04/06 00:37:26;;;;;;;7.57;5.70;;;2.60;51.50;;;;;;5022952;28;20203;-62
2023/04/06 00:39:53;;;;;;;8.40;6.10;;;2.60;55.40;;;;;;5048298;28;20205;-62
2023/04/06 00:42:25;;;;;;;9.23;6.27;;;2.70;58.30;;;;;;5056509;28;20204;-62
2023/04/06 00:44:52;;;;;;;9.40;6.40;;;2.80;64.40;;;;;;5036868;28;20196;-62
2023/04/06 00:47:19;;;;;;;8.90;5.17;;;2.70;60.80;;;;;;5040134;28;20591;-62
2023/04/06 00:49:46;;;;;;;8.20;6.10;;;2.60;55.10;;;;;;5042157;28;20200;-62
2023/04/06 00:52:13;;;;;;;8.50;5.77;;;2.60;56.60;;;;;;5025803;28;20228;-62
2023/04/06 00:54:40;;;;;;;10.27;6.60;;;2.60;61.40;;;;;;5043805;28;20196;-62
2023/04/06 00:57:07;;;;;;;10.83;6.60;;;2.60;59.50;;;;;;5044773;28;20215;-62
2023/04/06 00:59:35;;;;;;;17.37;6.83;;;2.60;59.90;;;;;;5034206;28;20215;-62
2023/04/06 01:02:02;;;;;;;12.17;6.63;;;2.60;65.10;;;;;;5045992;28;20697;-62
2023/04/06 01:04:29;;;;;;;15.57;6.23;;;2.70;69.30;;;;;;5026395;28;21385;-62
2023/04/06 01:06:56;;;;;;;10.17;6.57;;;2.70;71.10;;;;;;5051971;28;20196;-62
2023/04/06 01:09:23;;;;;;;8.50;6.73;;;2.70;69.90;;;;;;5023989;28;20677;-62
2023/04/06 01:11:50;;;;;;;9.23;6.33;;;2.60;63.80;;;;;;5042973;28;20315;-62
2023/04/06 01:14:17;;;;;;;9.77;6.63;;;2.50;63.50;;;;;;5054182;28;20224;-62
2023/04/06 01:16:45;;;;;;;13.13;7.37;;;2.50;62.70;;;;;;5025422;28;21186;-62
2023/04/06 01:19:13;;;;;;;12.33;7.07;;;2.40;64.60;;;;;;5034628;28;20214;-62
2023/04/06 01:21:41;;;;;;;10.20;7.13;;;2.30;63.90;;;;;;5055699;28;20678;-62
2023/04/06 01:24:09;;;;;;;9.33;6.83;;;2.30;67.50;;;;;;5023882;28;20204;-63
2023/04/06 01:26:37;;;;;;;12.07;7.50;;;2.50;73.00;;;;;;5046499;28;20480;-62
2023/04/06 01:29:05;;;;;;;11.20;7.27;;;2.50;75.10;;;;;;5049154;28;20407;-62
2023/04/06 01:31:31;;;;;;;9.07;6.87;;;2.40;71.60;;;;;;5046749;28;20264;-62
2023/04/06 01:33:58;;;;;;;10.83;7.33;;;2.40;73.60;;;;;;5049891;28;20249;-62
2023/04/06 01:36:25;;;;;;;12.67;7.37;;;2.40;76.10;;;;;;5042700;28;20224;-63
2023/04/06 01:38:52;;;;;;;12.93;7.20;;;2.40;74.80;;;;;;5030611;28;21359;-62
2023/04/06 01:41:20;;;;;;;11.83;8.30;;;2.30;73.50;;;;;;5059313;28;20208;-62
2023/04/06 01:43:49;;;;;;;13.97;8.10;;;2.30;74.80;;;;;;5054942;28;20410;-62
2023/04/06 01:46:16;;;;;;;12.63;7.63;;;2.30;75.50;;;;;;5049584;28;20555;-62
2023/04/06 01:48:42;;;;;;;16.80;8.37;;;2.30;75.90;;;;;;5049188;28;20395;-63
2023/04/06 01:51:09;;;;;;;10.87;8.40;;;2.20;75.50;;;;;;5053322;28;20204;-62
2023/04/06 01:53:36;;;;;;;11.67;7.70;;;2.20;72.60;;;;;;5039919;28;20204;-62
2023/04/06 01:56:03;;;;;;;14.53;9.33;;;2.20;73.80;;;;;;5047977;28;20553;-62
2023/04/06 01:58:31;;;;;;;14.97;8.73;;;2.20;74.70;;;;;;5054548;28;20193;-62
2023/04/06 02:00:58;;;;;;;14.53;9.07;;;2.30;75.50;;;;;;5056634;28;20388;-62
2023/04/06 02:03:25;;;;;;;15.83;8.90;;;2.20;74.20;;;;;;5052949;28;20203;-62
2023/04/06 02:05:52;;;;;;;13.03;9.57;;;2.30;70.80;;;;;;5031214;28;20937;-62
2023/04/06 02:08:19;;;;;;;15.83;9.13;;;2.10;65.20;;;;;;5067529;28;20207;-62
2023/04/06 02:10:46;;;;;;;17.37;9.27;;;2.20;65.90;;;;;;5022497;28;20734;-62
2023/04/06 02:13:12;;;;;;;13.17;9.57;;;2.10;65.10;;;;;;5052810;28;20235;-62
2023/04/06 02:15:41;;;;;;;13.60;9.80;;;2.10;63.60;;;;;;5061260;28;20567;-63
2023/04/06 02:18:07;;;;;;;17.60;9.67;;;2.10;62.70;;;;;;5044310;28;20207;-62
2023/04/06 02:20:34;;;;;;;13.80;10.37;;;2.20;65.00;;;;;;5032370;28;20219;-63
2023/04/06 02:23:01;;;;;;;16.03;10.27;;;2.30;62.80;;;;;;5018507;28;20212;-62
2023/04/06 02:25:28;;;;;;;14.07;10.07;;;2.30;62.80;;;;;;5045661;28;20229;-62
2023/04/06 02:27:55;;;;;;;13.30;8.87;;;2.30;64.20;;;;;;5042191;28;20233;-62
2023/04/06 02:30:22;;;;;;;15.93;10.20;;;2.30;63.60;;;;;;5041619;28;20204;-62
2023/04/06 02:32:50;;;;;;;16.40;10.10;;;2.20;63.30;;;;;;5053283;28;20228;-62
2023/04/06 02:35:17;;;;;;;13.90;10.20;;;2.10;64.60;;;;;;5041214;28;20344;-62
2023/04/06 02:37:44;;;;;;;20.97;10.07;;;2.10;68.30;;;;;;5032168;28;23242;-62
2023/04/06 02:40:12;;;;;;;14.37;10.27;;;2.20;66.50;;;;;;5057396;28;21506;-62
2023/04/06 02:42:38;;;;;;;15.77;10.47;;;2.20;65.60;;;;;;5024616;28;20215;-62
2023/04/06 02:45:06;;;;;;;16.00;10.63;;;2.20;66.40;;;;;;5049019;28;20869;-62
2023/04/06 02:47:34;;;;;;;16.47;11.00;;;2.20;68.50;;;;;;5058940;28;20213;-62
2023/04/06 02:50:02;;;;;;;15.50;10.30;;;2.30;64.40;;;;;;5035797;28;20350;-62
2023/04/06 02:52:29;;;;;;;12.83;9.90;;;2.40;60.30;;;;;;5044791;28;20228;-63
2023/04/06 02:54:56;;;;;;;14.07;10.53;;;2.30;56.20;;;;;;5033730;28;20204;-62
2023/04/06 02:57:23;;;;;;;16.27;10.33;;;2.30;54.40;;;;;;5027304;28;21351;-62
2023/04/06 02:59:49;;;;;;;14.50;10.43;;;2.20;51.20;;;;;;5040775;28;22927;-62
2023/04/06 03:02:16;;;;;;;16.67;10.20;;;2.20;51.70;;;;;;5046527;28;20223;-62
2023/04/06 03:04:43;;;;;;;17.07;10.40;;;2.20;51.20;;;;;;5046273;28;20216;-62
2023/04/06 03:07:12;;;;;;;22.53;10.43;;;2.10;51.70;;;;;;5039536;28;20728;-62
2023/04/06 03:09:39;;;;;;;13.13;9.57;;;2.10;51.60;;;;;;5031390;28;20205;-62
2023/04/06 03:12:06;;;;;;;18.53;10.60;;;2.10;49.10;;;;;;5018956;28;20224;-62
2023/04/06 03:14:33;;;;;;;16.07;10.50;;;2.10;46.90;;;;;;5043694;28;20206;-63
2023/04/06 03:17:00;;;;;;;16.77;9.50;;;2.10;44.80;;;;;;5028736;28;20578;-62
2023/04/06 03:19:27;;;;;;;13.27;9.87;;;2.10;43.20;;;;;;5040178;28;20201;-62
2023/04/06 03:21:53;;;;;;;14.77;9.37;;;2.00;37.80;;;;;;5030179;28;20740;-62
2023/04/06 03:24:22;;;;;;;12.87;9.30;;;1.80;32.20;;;;;;5048780;28;20661;-63
2023/04/06 03:26:49;;;;;;;12.30;9.17;;;1.90;33.20;;;;;;5045628;28;20988;-62
2023/04/06 03:29:15;;;;;;;13.33;9.40;;;1.80;31.10;;;;;;5019675;28;26600;-62
2023/04/06 03:31:42;;;;;;;15.40;9.00;;;1.80;32.80;;;;;;5042903;28;20484;-62
2023/04/06 03:34:09;;;;;;;12.23;8.37;;;1.80;34.80;;;;;;5059821;28;20210;-62
2023/04/06 03:36:36;;;;;;;11.60;8.50;;;1.70;31.30;;;;;;5038445;28;20367;-62
2023/04/06 03:39:03;;;;;;;17.70;9.43;;;1.60;35.70;;;;;;5055510;28;20202;-62
2023/04/06 03:41:31;;;;;;;12.63;8.70;;;1.70;36.90;;;;;;5050437;28;20209;-62
2023/04/06 03:43:58;;;;;;;13.83;9.17;;;1.70;35.90;;;;;;5023079;28;20771;-62
2023/04/06 03:46:25;;;;;;;12.13;8.80;;;1.80;33.60;;;;;;5055688;28;20195;-62
2023/04/06 03:48:52;;;;;;;12.43;8.23;;;1.80;27.90;;;;;;5051703;28;20204;-62
2023/04/06 03:51:19;;;;;;;12.30;8.43;;;1.90;20.10;;;;;;5060016;28;20202;-62
2023/04/06 03:53:45;;;;;;;13.17;8.73;;;1.80;18.60;;;;;;5033216;28;20245;-62
2023/04/06 03:56:12;;;;;;;10.23;8.10;;;1.90;14.90;;;;;;5054514;28;20210;-62
2023/04/06 03:58:40;;;;;;;15.13;8.50;;;1.80;11.60;;;;;;5015149;28;20211;-62
2023/04/06 04:01:07;;;;;;;15.47;8.73;;;1.70;12.40;;;;;;5056104;28;20474;-62
2023/04/06 04:03:34;;;;;;;11.67;8.17;;;1.70;14.40;;;;;;5056362;28;20204;-62
2023/04/06 04:06:01;;;;;;;12.37;8.47;;;1.70;13.20;;;;;;5060205;28;20664;-62
2023/04/06 04:08:28;;;;;;;14.37;8.53;;;1.70;8.90;;;;;;5034675;28;20219;-62
2023/04/06 04:10:54;;;;;;;12.97;7.77;;;1.60;7.80;;;;;;5059523;28;20505;-62
2023/04/06 04:13:21;;;;;;;12.13;8.67;;;1.70;7.60;;;;;;5028971;28;20227;-62
2023/04/06 04:15:49;;;;;;;14.90;8.43;;;1.60;5.70;;;;;;5045263;28;20873;-62
2023/04/06 04:18:16;;;;;;;14.23;8.67;;;1.60;4.50;;;;;;5043341;28;20214;-62
2023/04/06 04:20:43;;;;;;;12.67;8.20;;;1.60;1.00;;;;;;5054334;28;20841;-62
2023/04/06 04:23:10;;;;;;;22.77;8.63;;;1.70;1.00;;;;;;5044646;28;20494;-62
2023/04/06 04:25:37;;;;;;;15.40;9.00;;;1.80;1.00;;;;;;5041621;28;20210;-62
2023/04/06 04:28:05;;;;;;;12.20;8.40;;;1.80;1.00;;;;;;5037818;28;20200;-62
2023/04/06 04:30:31;;;;;;;12.60;8.27;;;1.70;1.00;;;;;;5021485;28;20707;-62
2023/04/06 04:33:00;;;;;;;12.53;8.43;;;1.70;1.00;;;;;;5049560;28;20845;-62
2023/04/06 04:35:27;;;;;;;11.77;8.70;;;1.60;1.00;;;;;;5054846;28;20231;-62
2023/04/06 04:37:54;;;;;;;12.00;8.30;;;1.70;1.00;;;;;;5061605;28;20655;-62
2023/04/06 04:40:21;;;;;;;15.20;8.67;;;1.70;1.00;;;;;;5045013;28;20647;-62
2023/04/06 04:42:50;;;;;;;13.23;8.60;;;1.60;1.00;;;;;;5058159;28;20302;-62
2023/04/06 04:45:17;;;;;;;14.47;9.27;;;1.70;1.00;;;;;;5006556;28;20869;-62
2023/04/06 04:47:44;;;;;;;11.30;8.23;;;1.70;1.00;;;;;;5044752;28;20310;-62
2023/04/06 04:50:12;;;;;;;15.20;8.37;;;1.70;1.00;;;;;;5056195;28;20203;-62
2023/04/06 04:52:39;;;;;;;14.37;8.57;;;1.50;1.00;;;;;;5057664;28;20233;-62
2023/04/06 04:55:07;;;;;;;11.90;7.50;;;1.60;1.00;;;;;;5054679;28;20199;-62
2023/04/06 04:57:33;;;;;;;13.07;8.40;;;1.50;1.00;;;;;;5037439;28;20209;-62
2023/04/06 05:00:01;;;;;;;12.60;8.50;;;1.50;1.00;;;;;;5042734;28;20513;-62
2023/04/06 05:02:28;;;;;;;13.70;8.17;;;1.50;1.00;;;;;;5024273;28;20226;-62
2023/04/06 05:04:55;;;;;;;14.50;9.30;;;1.50;1.00;;;;;;5045755;28;20216;-62
2023/04/06 05:07:23;;;;;;;14.63;9.00;;;1.50;1.00;;;;;;5054631;28;20598;-62
2023/04/06 05:09:50;;;;;;;14.10;8.97;;;1.40;1.00;;;;;;5048323;28;20393;-62
2023/04/06 05:12:17;;;;;;;14.23;8.40;;;1.50;1.00;;;;;;5048775;28;20205;-62
2023/04/06 05:14:44;;;;;;;14.27;8.57;;;1.50;1.00;;;;;;5026285;28;20462;-62
2023/04/06 05:17:10;;;;;;;12.77;8.63;;;1.60;1.00;;;;;;5013860;28;20214;-62
2023/04/06 05:19:37;;;;;;;13.17;8.17;;;1.60;1.00;;;;;;5055468;28;20299;-62
2023/04/06 05:22:04;;;;;;;12.27;8.73;;;1.60;1.00;;;;;;5047048;28;20514;-62
2023/04/06 05:24:32;;;;;;;13.50;8.20;;;1.50;1.00;;;;;;5045615;28;20693;-62
2023/04/06 05:27:00;;;;;;;12.23;8.20;;;1.70;1.00;;;;;;5054017;28;20198;-62
2023/04/06 05:29:26;;;;;;;11.20;8.43;;;1.60;1.00;;;;;;5022221;28;20238;-62
2023/04/06 05:31:53;;;;;;;12.43;8.73;;;1.70;1.00;;;;;;5016513;28;20218;-62
2023/04/06 05:34:20;;;;;;;11.40;8.13;;;1.80;1.00;;;;;;5060514;28;20271;-62
2023/04/06 05:36:47;;;;;;;12.57;8.57;;;1.80;1.00;;;;;;5050434;28;20225;-62
2023/04/06 05:39:14;;;;;;;19.27;8.50;;;1.80;1.00;;;;;;5062077;28;20203;-62
2023/04/06 05:41:42;;;;;;;12.27;8.70;;;1.80;1.00;;;;;;5056768;28;20203;-62
2023/04/06 05:44:09;;;;;;;11.47;8.13;;;1.80;1.00;;;;;;5051326;28;20211;-61
2023/04/06 05:46:36;;;;;;;16.67;8.80;;;1.80;1.00;;;;;;5004992;28;21086;-62
2023/04/06 05:49:03;;;;;;;9.90;7.07;;;1.80;1.00;;;;;;5049039;28;20301;-62
2023/04/06 05:51:29;;;;;;;10.97;7.50;;;1.80;1.00;;;;;;5050239;28;20751;-62
2023/04/06 05:53:57;;;;;;;10.23;7.20;;;1.80;1.00;;;;;;5055717;28;20224;-62
2023/04/06 05:56:25;;;;;;;10.70;7.53;;;1.90;1.00;;;;;;5056101;28;20293;-62
2023/04/06 05:58:53;;;;;;;11.40;7.70;;;1.90;1.00;;;;;;5048305;28;20227;-62
2023/04/06 06:01:20;;;;;;;11.53;7.90;;;2.10;1.00;;;;;;5043644;28;20214;-62
2023/04/06 06:03:47;;;;;;;11.50;7.30;;;2.10;1.00;;;;;;5044020;28;20403;-62
2023/04/06 06:06:14;;;;;;;10.00;8.13;;;2.10;1.00;;;;;;5042536;28;20648;-62
2023/04/06 06:08:40;;;;;;;9.17;7.57;;;2.10;1.00;;;;;;5029931;28;20203;-62
2023/04/06 06:11:07;;;;;;;11.00;7.50;;;2.10;1.00;;;;;;5054883;28;20265;-62
2023/04/06 06:13:34;;;;;;;9.57;7.33;;;2.20;1.00;;;;;;5033643;28;20223;-62
2023/04/06 06:16:04;;;;;;;13.83;7.00;;;2.20;1.00;;;;;;5056577;28;20241;-62
2023/04/06 06:18:31;;;;;;;11.60;7.07;;;2.30;1.00;;;;;;5029937;28;20218;-62
2023/04/06 06:20:58;;;;;;;12.90;8.10;;;2.40;1.00;;;;;;5056556;28;20207;-62
2023/04/06 06:23:25;;;;;;;9.90;7.30;;;2.50;1.00;;;;;;5043563;28;20222;-62
2023/04/06 06:25:52;;;;;;;11.43;7.73;;;2.60;1.00;;;;;;5057148;28;20192;-62
2023/04/06 06:28:19;;;;;;;12.90;7.83;;;2.60;1.00;;;;;;5051737;28;20218;-62
2023/04/06 06:30:46;;;;;;;9.40;7.23;;;2.70;1.00;;;;;;5045713;28;20220;-62
2023/04/06 06:33:14;;;;;;;10.63;6.93;;;2.80;1.00;;;;;;5030342;28;20601;-62
2023/04/06 06:35:41;;;;;;;12.23;7.07;;;2.80;1.00;;;;;;5051981;28;20262;-62
2023/04/06 06:38:08;;;;;;;9.03;6.83;;;2.90;1.00;;;;;;5051751;28;20676;-62
2023/04/06 06:40:34;;;;;;;9.60;6.90;;;2.90;1.00;;;;;;5058628;28;20475;-62
2023/04/06 06:43:01;;;;;;;10.30;6.57;;;3.00;1.00;;;;;;5053188;28;20542;-62
2023/04/06 06:45:29;;;;;;;12.57;7.97;;;3.10;1.00;;;;;;5040776;28;20605;-62
2023/04/06 06:47:56;;;;;;;7.97;6.87;;;3.20;1.00;;;;;;5029518;28;20625;-62
2023/04/06 06:50:24;;;;;;;11.43;7.33;;;3.20;1.00;;;;;;5062525;28;20658;-62
2023/04/06 06:52:51;;;;;;;12.70;7.50;;;3.30;1.00;;;;;;5056475;28;22709;-62
2023/04/06 06:55:19;;;;;;;9.63;6.67;;;3.40;1.00;;;;;;5060977;28;20206;-62
2023/04/06 06:57:46;;;;;;;11.27;7.70;;;3.40;1.00;;;;;;5055913;28;20281;-62
2023/04/06 07:00:14;;;;;;;13.70;6.93;;;3.50;1.00;;;;;;5031120;28;21028;-62
2023/04/06 07:02:41;;;;;;;10.20;7.50;;;3.60;1.00;;;;;;5039216;28;20208;-62
2023/04/06 07:05:08;;;;;;;9.83;6.67;;;3.70;1.00;;;;;;5046074;28;20415;-63
2023/04/06 07:07:37;;;;;;;11.57;6.53;;;3.80;99.90;;;;;;5023685;28;20223;-62
2023/04/06 07:10:04;;;;;;;10.80;6.70;;;3.80;1.00;;;;;;5048555;28;20196;-62
2023/04/06 07:12:31;;;;;;;9.63;6.40;;;3.90;1.00;;;;;;5060685;28;20768;-62
2023/04/06 07:14:57;;;;;;;9.63;6.30;;;4.00;99.90;;;;;;5031023;28;20216;-62
2023/04/06 07:17:24;;;;;;;8.60;6.07;;;4.00;99.90;;;;;;5049262;28;20196;-62
2023/04/06 07:19:51;;;;;;;9.90;6.07;;;4.10;99.90;;;;;;5020658;28;20266;-62
2023/04/06 07:22:18;;;;;;;9.10;6.60;;;4.20;6.80;;;;;;5062139;28;20241;-62
2023/04/06 07:24:46;;;;;;;9.60;6.40;;;4.20;5.70;;;;;;5040223;28;20227;-62
2023/04/06 07:27:13;;;;;;;7.37;5.57;;;4.30;1.00;;;;;;5054288;28;20200;-62
2023/04/06 07:29:40;;;;;;;6.90;5.33;;;4.40;1.00;;;;;;5059809;28;20203;-62
2023/04/06 07:32:07;;;;;;;7.93;5.17;;;4.50;1.00;;;;;;5038618;28;20423;-62
2023/04/06 07:34:34;;;;;;;9.40;5.87;;;4.60;99.90;;;;;;5020502;28;22997;-62
2023/04/06 07:37:01;;;;;;;8.47;5.57;;;4.60;1.00;;;;;;5058171;28;20259;-62
2023/04/06 07:39:29;;;;;;;8.33;5.20;;;4.70;1.00;;;;;;5046789;28;20201;-62
2023/04/06 07:41:57;;;;;;;9.30;5.43;;;4.70;1.00;;;;;;5046164;28;20228;-62
2023/04/06 07:44:24;;;;;;;12.50;6.23;;;4.80;99.90;;;;;;5056847;28;20217;-62
2023/04/06 07:46:51;;;;;;;9.73;6.03;;;4.80;1.00;;;;;;5034219;28;20230;-62
2023/04/06 07:49:18;;;;;;;6.70;5.23;;;5.00;99.90;;;;;;5060829;28;20191;-62
2023/04/06 07:51:44;;;;;;;7.53;5.37;;;5.00;1.00;;;;;;5028788;28;20199;-62
2023/04/06 07:54:11;;;;;;;8.17;6.20;;;5.10;1.00;;;;;;5036755;28;21101;-62
2023/04/06 07:56:38;;;;;;;15.47;5.10;;;5.20;1.00;;;;;;5052971;28;20221;-62
2023/04/06 07:59:06;;;;;;;9.27;5.47;;;5.20;99.90;;;;;;5052330;28;20230;-62
2023/04/06 08:01:33;;;;;;;12.93;5.60;;;5.20;99.90;;;;;;5022937;28;22143;-62
2023/04/06 08:04:02;;;;;;;7.47;5.40;;;5.30;1.00;;;;;;5056335;28;20211;-62
2023/04/06 08:06:29;;;;;;;9.70;5.70;;;5.40;1.00;;;;;;5015056;28;20959;-63
2023/04/06 08:08:56;;;;;;;6.83;5.67;;;5.40;1.00;;;;;;5058148;28;21049;-62
2023/04/06 08:11:22;;;;;;;7.90;5.50;;;5.50;1.00;;;;;;5045545;28;20222;-62
2023/04/06 08:13:50;;;;;;;7.23;5.17;;;5.60;99.90;;;;;;5061307;28;20236;-62
2023/04/06 08:16:18;;;;;;;7.73;4.87;;;5.60;99.90;;;;;;5036800;28;20224;-62
2023/04/06 08:18:45;;;;;;;7.80;5.40;;;5.60;92.80;;;;;;5061411;28;20238;-62
2023/04/06 08:21:12;;;;;;;7.13;5.43;;;5.70;26.10;;;;;;5040082;28;20216;-63
2023/04/06 08:23:39;;;;;;;6.17;5.03;;;5.70;1.00;;;;;;5032831;28;20248;-62
2023/04/06 08:26:06;;;;;;;8.37;5.57;;;5.80;1.00;;;;;;5048427;28;20224;-63
2023/04/06 08:28:34;;;;;;;8.27;5.40;;;5.90;1.00;;;;;;5024351;28;20224;-62
2023/04/06 08:31:04;;;;;;;7.93;5.37;;;5.90;1.00;;;;;;5053958;28;21779;-62
2023/04/06 08:33:35;;;;;;;6.63;5.30;;;6.00;1.00;;;;;;5037722;28;20219;-63
2023/04/06 08:36:08;;;;;;;7.33;5.73;;;6.00;1.00;;;;;;5057845;28;20319;-63
2023/04/06 08:38:35;;;;;;;6.93;5.17;;;6.10;1.00;;;;;;5010019;28;20227;-62
2023/04/06 08:41:08;;;;;;;7.30;5.07;;;6.30;1.00;;;;;;5049988;28;20212;-62
2023/04/06 08:43:42;;;;;;;7.00;4.97;;;6.30;1.00;;;;;;5040317;28;20207;-62
2023/04/06 08:46:10;;;;;;;7.33;5.30;;;6.40;1.00;;;;;;5055649;28;20206;-63
2023/04/06 08:48:39;;;;;;;9.27;5.70;;;6.40;1.00;;;;;;5051691;28;20215;-62
2023/04/06 08:51:07;;;;;;;6.00;4.90;;;6.50;1.00;;;;;;5057525;28;21726;-63
2023/04/06 08:53:34;;;;;;;7.60;6.10;;;6.70;1.00;;;;;;5004201;28;21339;-62
2023/04/06 08:56:01;;;;;;;8.83;5.73;;;6.70;1.00;;;;;;5053244;28;20198;-62
2023/04/06 08:58:30;;;;;;;10.33;5.63;;;6.90;1.00;;;;;;5033154;28;20755;-62
2023/04/06 09:00:58;;;;;;;6.73;4.87;;;6.90;99.90;;;;;;5038493;28;20196;-62
2023/04/06 09:03:26;;;;;;;6.27;5.20;;;7.00;99.90;;;;;;5040531;28;20224;-62
2023/04/06 09:05:55;;;;;;;6.77;5.03;;;7.00;99.90;;;;;;5034784;28;20211;-63
2023/04/06 09:08:21;;;;;;;7.23;4.97;;;7.40;99.90;;;;;;5020906;28;20366;-63
2023/04/06 09:10:51;;;;;;;7.73;4.87;;;7.50;1.00;;;;;;5038652;28;20220;-63
2023/04/06 09:13:18;;;;;;;6.80;4.60;;;7.50;1.00;;;;;;5053952;28;21019;-63
2023/04/06 09:15:45;;;;;;;6.80;4.90;;;7.50;1.00;;;;;;5039425;28;20231;-62
2023/04/06 09:18:12;;;;;;;7.60;5.33;;;7.50;1.00;;;;;;5055000;28;20212;-63
2023/04/06 09:20:39;;;;;;;7.03;5.07;;;7.50;1.00;;;;;;5037559;28;20759;-62
2023/04/06 09:23:07;;;;;;;11.60;5.03;;;7.50;99.90;;;;;;5051061;28;20310;-63
2023/04/06 09:25:34;;;;;;;10.53;4.57;;;7.60;99.90;;;;;;5031220;28;20207;-63
2023/04/06 09:28:02;;;;;;;6.53;4.90;;;7.70;99.90;;;;;;5061175;28;20387;-63
2023/04/06 09:30:29;;;;;;;6.97;5.07;;;7.70;99.90;;;;;;5040269;28;20200;-63
2023/04/06 09:32:58;;;;;;;6.53;4.93;;;7.80;99.90;;;;;;5059479;28;20196;-63
2023/04/06 09:35:27;;;;;;;6.50;5.00;;;7.80;99.90;;;;;;5067901;28;20606;-63
2023/04/06 09:37:55;;;;;;;5.57;4.77;;;7.90;99.90;;;;;;5049605;28;20216;-63
2023/04/06 09:40:24;;;;;;;7.17;5.20;;;8.00;99.90;;;;;;5027808;28;20224;-63
2023/04/06 09:42:53;;;;;;;14.43;5.00;;;7.90;1.00;;;;;;5048977;28;20200;-63
2023/04/06 09:45:20;;;;;;;6.77;5.00;;;7.90;1.00;;;;;;5031611;28;20207;-63
2023/04/06 09:47:47;;;;;;;6.83;4.70;;;7.90;1.00;;;;;;5048266;28;20200;-63
2023/04/06 09:50:16;;;;;;;8.43;5.63;;;7.90;1.00;;;;;;5051971;28;20216;-62
2023/04/06 09:52:48;;;;;;;7.83;5.37;;;8.00;1.00;;;;;;5056367;28;20223;-63
2023/04/06 09:55:21;;;;;;;9.47;5.20;;;8.10;1.00;;;;;;5027431;28;20795;-63
2023/04/06 09:57:56;;;;;;;8.03;5.03;;;8.20;1.00;;;;;;5062293;28;20226;-63
2023/04/06 10:00:26;;;;;;;9.93;4.97;;;8.40;1.00;;;;;;5064661;28;20192;-63
2023/04/06 10:03:00;;;;;;;9.50;5.37;;;8.40;1.00;;;;;;5045858;28;20228;-63
2023/04/06 10:05:34;;;;;;;9.27;5.70;;;8.60;1.00;;;;;;5067290;28;20291;-63
2023/04/06 10:08:06;;;;;;;11.83;6.00;;;8.60;1.00;;;;;;5052539;28;20203;-62
2023/04/06 10:10:33;;;;;;;10.03;5.73;;;8.60;1.00;;;;;;5067648;28;20223;-63
2023/04/06 10:13:01;;;;;;;10.90;5.63;;;8.70;1.00;;;;;;4999121;28;20576;-62
2023/04/06 10:15:30;;;;;;;11.23;6.07;;;8.70;1.00;;;;;;5058825;28;20243;-62
2023/04/06 10:17:57;;;;;;;14.27;6.47;;;8.70;1.00;;;;;;5037755;28;20256;-63
2023/04/06 10:20:30;;;;;;;10.90;5.70;;;8.80;1.00;;;;;;5054499;28;20220;-63
2023/04/06 10:23:02;;;;;;;10.32;5.60;;;8.80;1.00;;;;;;5046091;28;20682;-63
2023/04/06 10:25:30;;;;;;;8.77;6.45;;;8.90;1.00;;;;;;5060913;28;20205;-63
2023/04/06 10:28:07;;;;;;;9.50;6.13;;;8.90;1.00;;;;;;5025193;28;20228;-62
2023/04/06 10:30:34;;;;;;;13.10;6.40;;;9.00;1.00;;;;;;5057936;28;20570;-63
2023/04/06 10:33:01;;;;;;;9.88;6.93;;;9.00;1.00;;;;;;5042495;28;20221;-63
2023/04/06 10:35:38;;;;;;;10.13;6.25;;;9.10;1.00;;;;;;5061991;28;20694;-63
2023/04/06 10:38:06;;;;;;;12.30;6.07;;;9.20;1.00;;;;;;5042567;28;20200;-62
2023/04/06 10:40:36;;;;;;;11.55;6.40;;;9.30;1.00;;;;;;5062893;28;20316;-63
2023/04/06 10:43:10;;;;;;;9.52;6.07;;;9.30;1.00;;;;;;5019636;28;21971;-63
2023/04/06 10:45:38;;;;;;;8.93;6.10;;;9.40;1.00;;;;;;5064289;28;20214;-63
2023/04/06 10:48:14;;;;;;;8.37;6.30;;;9.40;1.00;;;;;;5050309;28;20208;-63
2023/04/06 10:50:42;;;;;;;7.93;5.82;;;9.40;1.00;;;;;;5066878;28;20203;-63
2023/04/06 10:53:09;;;;;;;7.60;5.88;;;9.40;1.00;;;;;;5059154;28;20203;-62
2023/04/06 10:55:40;;;;;;;8.30;6.43;;;9.40;1.00;;;;;;5050583;28;20224;-63
2023/04/06 10:58:09;;;;;;;15.43;7.30;;;9.50;1.00;;;;;;5031542;28;20204;-63
2023/04/06 11:00:36;;;;;;;11.13;6.95;;;9.50;1.00;;;;;;5064408;28;20200;-63
2023/04/06 11:03:03;;;;;;;8.88;6.80;;;9.60;1.00;;;;;;5050082;28;20208;-63
2023/04/06 11:05:31;;;;;;;11.18;7.13;;;9.70;1.00;;;;;;5066646;28;20224;-63
2023/04/06 11:07:58;;;;;;;11.48;7.95;;;9.70;1.00;;;;;;5061102;28;20578;-63
2023/04/06 11:10:25;;;;;;;12.55;7.90;;;9.70;1.00;;;;;;5050799;28;20223;-63
2023/04/06 11:12:55;;;;;;;11.82;7.43;;;10.20;1.00;;;;;;5029586;28;20283;-63
2023/04/06 11:15:24;;;;;;;10.05;7.25;;;9.80;1.00;;;;;;5054652;28;20235;-63
2023/04/06 11:17:50;;;;;;;11.48;7.25;;;9.70;1.00;;;;;;5050377;28;20199;-63
2023/04/06 11:20:19;;;;;;;12.60;8.40;;;9.90;1.00;;;;;;5038070;28;20204;-63
2023/04/06 11:22:50;;;;;;;10.43;8.02;;;9.90;1.00;;;;;;5057819;28;20199;-63
2023/04/06 11:25:17;;;;;;;12.77;8.07;;;10.00;1.00;;;;;;5054021;28;20909;-63
2023/04/06 11:27:45;;;;;;;11.43;8.18;;;10.00;1.00;;;;;;5050016;28;20205;-63
2023/04/06 11:30:13;;;;;;;11.85;8.60;;;10.20;1.00;;;;;;5043365;28;20204;-63
2023/04/06 11:32:43;;;;;;;12.40;8.20;;;10.10;1.00;;;;;;5039766;28;20207;-63
2023/04/06 11:35:12;;;;;;;12.77;8.77;;;10.10;1.00;;;;;;5032853;28;21151;-63
2023/04/06 11:37:39;;;;;;;13.75;8.88;;;10.30;1.00;;;;;;5043895;28;20203;-63
2023/04/06 11:40:10;;;;;;;11.93;8.25;;;10.30;1.00;;;;;;5039625;28;20200;-63
2023/04/06 11:42:37;;;;;;;12.15;9.35;;;10.20;1.00;;;;;;5053909;28;20203;-63
2023/04/06 11:45:04;;;;;;;12.73;8.70;;;10.30;1.00;;;;;;5022688;28;20218;-63
2023/04/06 11:47:33;;;;;;;17.00;8.57;;;10.30;1.00;;;;;;5044884;28;20928;-63
2023/04/06 11:50:09;;;;;;;17.70;9.07;;;10.40;1.00;;;;;;5051209;28;20223;-63
2023/04/06 11:52:36;;;;;;;13.13;9.45;;;10.40;1.00;;;;;;5029726;28;20508;-63
2023/04/06 11:55:13;;;;;;;14.13;9.73;;;10.50;1.00;;;;;;5044084;28;24537;-63
2023/04/06 11:57:41;;;;;;;17.65;9.60;;;10.50;1.00;;;;;;5052473;28;20238;-63
2023/04/06 12:00:09;;;;;;;16.42;8.88;;;10.60;99.90;;;;;;5019287;28;20223;-63
2023/04/06 12:02:36;;;;;;;11.75;8.65;;;10.70;99.90;;;;;;5049768;28;20223;-63
2023/04/06 12:05:03;;;;;;;12.65;9.40;;;10.60;99.90;;;;;;5056607;28;20618;-63
2023/04/06 12:07:32;;;;;;;13.15;8.95;;;10.60;99.90;;;;;;5033186;28;20219;-63
2023/04/06 12:09:59;;;;;;;12.27;8.25;;;10.80;99.90;;;;;;5025972;28;20530;-63
2023/04/06 12:12:26;;;;;;;14.70;9.38;;;10.80;99.90;;;;;;5036867;28;20217;-63
2023/04/06 12:14:53;;;;;;;11.68;9.18;;;10.80;99.90;;;;;;5035914;28;20843;-63
2023/04/06 12:17:21;;;;;;;15.05;8.38;;;11.00;99.90;;;;;;4995626;28;20235;-63
2023/04/06 12:19:48;;;;;;;12.82;8.18;;;11.00;99.90;;;;;;5057696;28;20204;-63
2023/04/06 12:22:15;;;;;;;14.20;8.52;;;11.00;99.90;;;;;;5044888;28;20222;-63
2023/04/06 12:24:44;;;;;;;12.80;7.95;;;11.10;99.90;;;;;;4999447;28;22260;-63
2023/04/06 12:27:11;;;;;;;15.40;7.93;;;11.10;99.90;;;;;;5039807;28;20376;-62
2023/04/06 12:29:38;;;;;;;12.23;7.45;;;11.10;99.90;;;;;;5031909;28;20699;-63
2023/04/06 12:32:05;;;;;;;8.65;7.45;;;11.10;99.90;;;;;;5025778;28;20261;-63
2023/04/06 12:34:32;;;;;;;9.85;7.13;;;11.20;99.90;;;;;;5064002;28;20959;-63
2023/04/06 12:36:59;;;;;;;12.68;7.72;;;11.10;99.90;;;;;;5053784;28;21450;-63
2023/04/06 12:39:28;;;;;;;12.23;7.55;;;11.20;99.90;;;;;;5026011;28;20203;-63
2023/04/06 12:41:57;;;;;;;13.65;7.10;;;11.20;99.90;;;;;;5035088;28;20204;-63
2023/04/06 12:44:24;;;;;;;10.18;7.45;;;11.20;99.90;;;;;;5042790;28;20953;-64
2023/04/06 12:46:51;;;;;;;9.75;7.32;;;11.10;99.90;;;;;;5002091;28;20903;-63
2023/04/06 12:49:18;;;;;;;9.02;7.30;;;11.10;99.90;;;;;;5060200;28;20204;-63
2023/04/06 12:51:46;;;;;;;10.45;7.40;;;11.10;99.90;;;;;;5051287;28;20426;-64
2023/04/06 12:54:12;;;;;;;10.52;7.15;;;11.20;99.90;;;;;;5022102;28;20669;-63